Flight Track Log - Related Links

Times and Time Zones

All times are in EDT time to prevent confusion due to time zone crossing. See the AAL1624 flight status page for this flight to view local times or setup timezone preferences in your user account.

Time Position Orientation Groundspeed Altitude Reporting Facility
EDT Latitude Longitude Course Direction KTS MPH feet Rate Location/Type
Fri 06:27:52 PM 33.9360 -118.4200 262° West 163 188 700  Level FlightAware ADS-B
Fri 06:28:22 PM 33.9320 -118.4480 260° West 175 201 1,600 1,418 Climbing FlightAware ADS-B
Fri 06:28:47 PM 33.9290 -118.4680 260° West 192 221 2,000 1,050 Climbing FlightAware ADS-B
Fri 06:29:02 PM 33.9230 -118.4870 249° West 214 246 2,300 1,467 Climbing FlightAware ADS-B
Fri 06:29:32 PM 33.9110 -118.5250 249° West 241 277 3,100 1,745 Climbing FlightAware ADS-B
Fri 06:29:57 PM 33.9010 -118.5540 247° West 249 287 3,900 2,100 Climbing FlightAware ADS-B
Fri 06:30:12 PM 33.8920 -118.5720 239° Southwest 251 289 4,500 2,160 Climbing FlightAware ADS-B
Fri 06:30:22 PM 33.8840 -118.5820 226° Southwest 254 292 4,800 2,200 Climbing FlightAware ADS-B
Fri 06:30:42 PM 33.8580 -118.5880 191° South 261 300 5,600 2,400 Climbing FlightAware ADS-B
Fri 06:30:57 PM 33.8410 -118.5800 159° South 261 300 6,200 2,000 Climbing FlightAware ADS-B
Fri 06:31:12 PM 33.8310 -118.5660 131° Southeast 258 297 6,600 2,700 Climbing FlightAware ADS-B
Fri 06:31:37 PM 33.8320 -118.5150 89° East 255 293 8,000 3,000 Climbing FlightAware ADS-B
Fri 06:31:52 PM 33.8460 -118.4990 44° Northeast 256 295 8,600 2,250 Climbing FlightAware ADS-B
Fri 06:32:17 PM 33.8680 -118.4830 31° Northeast 266 306 9,500 2,657 Climbing FlightAware ADS-B
Fri 06:33:02 PM 33.9180 -118.4440 33° Northeast 274 315 11,700 2,541 Climbing FlightAware ADS-B
Fri 06:33:42 PM 33.9550 -118.3940 48° Northeast 311 358 13,100 1,553 Climbing FlightAware ADS-B
Fri 06:34:27 PM 33.9920 -118.3290 56° Northeast 321 369 13,900 776 Climbing FlightAware ADS-B
Fri 06:35:07 PM 34.0250 -118.2700 56° Northeast 333 383 14,200 975 Climbing FlightAware ADS-B
Fri 06:35:47 PM 34.0630 -118.2040 55° Northeast 368 423 15,200 1,835 Climbing FlightAware ADS-B
Fri 06:36:32 PM 34.1070 -118.1260 56° Northeast 388 447 16,800 1,875 Climbing FlightAware ADS-B
Fri 06:37:07 PM 34.1420 -118.0620 57° Northeast 409 471 17,700 1,650 Climbing FlightAware ADS-B
Fri 06:37:52 PM 34.1690 -117.9590 72° East 422 486 19,000 1,600 Climbing FlightAware ADS-B
Fri 06:38:37 PM 34.1920 -117.8600 74° East 426 490 20,100 1,694 Climbing FlightAware ADS-B
Fri 06:39:17 PM 34.2250 -117.7710 66° East 426 490 21,400 1,906 Climbing FlightAware ADS-B
Fri 06:40:02 PM 34.2790 -117.6860 52° Northeast 431 496 22,800 1,835 Climbing FlightAware ADS-B
Fri 06:40:42 PM 34.3260 -117.6110 53° Northeast 437 503 24,000 1,835 Climbing FlightAware ADS-B
Fri 06:41:27 PM 34.3880 -117.5240 49° Northeast 439 505 25,400 1,624 Climbing FlightAware ADS-B
Fri 06:42:07 PM 34.4380 -117.4570 48° Northeast 448 516 26,300 1,350 Climbing FlightAware ADS-B
Fri 06:42:47 PM 34.4990 -117.3750 48° Northeast 459 528 27,200 1,425 Climbing FlightAware ADS-B
Fri 06:43:27 PM 34.5550 -117.2980 49° Northeast 466 536 28,200 1,482 Climbing FlightAware ADS-B
Fri 06:44:12 PM 34.6200 -117.2100 48° Northeast 466 536 29,300 1,694 Climbing FlightAware ADS-B
Fri 06:44:52 PM 34.6760 -117.1330 48° Northeast 461 531 30,600 1,765 Climbing FlightAware ADS-B
Fri 06:45:37 PM 34.7390 -117.0470 48° Northeast 456 525 31,800 1,533 Climbing FlightAware ADS-B
Fri 06:46:22 PM 34.8010 -116.9620 48° Northeast 448 516 32,900 1,341 Climbing FlightAware ADS-B
Fri 06:47:02 PM 34.8570 -116.8850 48° Northeast 447 514 33,700 1,200 Climbing FlightAware ADS-B
Fri 06:47:32 PM 34.8990 -116.8280 48° Northeast 446 513 34,300 1,200 Climbing FlightAware ADS-B
Fri 06:48:12 PM 34.9540 -116.7520 49° Northeast 445 512 35,100 1,050 Climbing FlightAware ADS-B
Fri 06:48:52 PM 35.0080 -116.6760 49° Northeast 445 512 35,700 918 Climbing FlightAware ADS-B
Fri 06:49:37 PM 35.0710 -116.5900 48° Northeast 445 512 36,400 857 Climbing FlightAware ADS-B
Fri 06:50:02 PM 35.1040 -116.5430 49° Northeast 444 511 36,700 514 Climbing FlightAware ADS-B
Fri 06:50:47 PM 35.1680 -116.4550 48° Northeast 449 517 37,000 225 Climbing FlightAware ADS-B
Fri 06:51:22 PM 35.2150 -116.3890 49° Northeast 449 517 37,000  Level FlightAware ADS-B
Fri 06:52:12 PM 35.2830 -116.2930 49° Northeast 446 513 37,000  Level FlightAware ADS-B
Fri 06:52:52 PM 35.3390 -116.2160 48° Northeast 448 516 37,000  Level FlightAware ADS-B
Fri 06:53:32 PM 35.3930 -116.1390 49° Northeast 448 516 37,000  Level FlightAware ADS-B
Fri 06:54:17 PM 35.4530 -116.0550 49° Northeast 447 514 37,000  Level FlightAware ADS-B
Fri 06:54:57 PM 35.5100 -115.9740 49° Northeast 447 514 37,000  Level FlightAware ADS-B
Fri 06:55:42 PM 35.5690 -115.8910 49° Northeast 448 516 37,000  Level FlightAware ADS-B
Fri 06:56:22 PM 35.6240 -115.8130 49° Northeast 448 516 37,000  Level FlightAware ADS-B
Fri 06:57:02 PM 35.6780 -115.7360 49° Northeast 448 516 37,000  Level FlightAware ADS-B
Fri 06:57:47 PM 35.7410 -115.6470 49° Northeast 450 518 37,000  Level FlightAware ADS-B
Fri 06:58:27 PM 35.7960 -115.5680 49° Northeast 453 521 37,000  Level FlightAware ADS-B
Fri 06:59:12 PM 35.8560 -115.4810 50° Northeast 453 521 37,000  Level FlightAware ADS-B
Fri 06:59:52 PM 35.9110 -115.4040 49° Northeast 454 522 37,000  Level FlightAware ADS-B
Fri 07:00:32 PM 35.9640 -115.3270 50° Northeast 455 524 37,000  Level FlightAware ADS-B
Fri 07:01:17 PM 36.0270 -115.2370 49° Northeast 453 521 37,000  Level FlightAware ADS-B
Fri 07:01:57 PM 36.0830 -115.1560 49° Northeast 451 519 37,000  Level FlightAware ADS-B
Fri 07:02:37 PM 36.1380 -115.0860 46° Northeast 449 517 37,000  Level FlightAware ADS-B
Fri 07:03:22 PM 36.2040 -115.0020 46° Northeast 449 517 37,000  Level FlightAware ADS-B
Fri 07:04:02 PM 36.2620 -114.9290 45° Northeast 450 518 37,000  Level FlightAware ADS-B
Fri 07:04:32 PM 36.3070 -114.8720 46° Northeast 452 520 37,000  Level FlightAware ADS-B
Fri 07:05:12 PM 36.3640 -114.7990 46° Northeast 458 527 37,000  Level FlightAware ADS-B
Fri 07:05:57 PM 36.4320 -114.7110 46° Northeast 463 533 37,000  Level FlightAware ADS-B
Fri 07:06:37 PM 36.4900 -114.6340 47° Northeast 466 536 37,000  Level FlightAware ADS-B
Fri 07:07:22 PM 36.5560 -114.5490 46° Northeast 470 541 37,000  Level FlightAware ADS-B
Fri 07:08:02 PM 36.6180 -114.4680 46° Northeast 471 542 37,000  Level FlightAware ADS-B
Fri 07:08:42 PM 36.6770 -114.3900 47° Northeast 472 543 37,000  Level FlightAware ADS-B
Fri 07:09:27 PM 36.7450 -114.2980 47° Northeast 472 543 37,000  Level FlightAware ADS-B
Fri 07:09:57 PM 36.7810 -114.2360 54° Northeast 481 554 37,000  Level FlightAware ADS-B
Fri 07:11:02 PM 36.8560 -114.0850 58° Northeast 481 554 37,000  Level FlightAware ADS-B
Fri 07:11:42 PM 36.8960 -114.0050 58° Northeast 481 554 37,000  Level FlightAware ADS-B
Fri 07:12:22 PM 36.9360 -113.9240 58° Northeast 481 554 37,000  Level FlightAware ADS-B
Fri 07:13:12 PM 37.0050 -113.7710 61° Northeast 478 550 37,000  Level FlightAware ADS-B
Fri 07:13:52 PM 37.0500 -113.6760 59° Northeast 479 551 37,000  Level FlightAware ADS-B
Fri 07:14:32 PM 37.0960 -113.5790 59° Northeast 481 554 37,000  Level FlightAware ADS-B
Fri 07:15:17 PM 37.1470 -113.4720 59° Northeast 481 554 37,000  Level FlightAware ADS-B
Fri 07:15:57 PM 37.1870 -113.3890 59° Northeast 481 554 37,000  Level FlightAware ADS-B
Fri 07:16:37 PM 37.2250 -113.3070 60° Northeast 481 554 37,000  Level FlightAware ADS-B
Fri 07:17:17 PM 37.2640 -113.2260 59° Northeast 481 554 37,000  Level FlightAware ADS-B
Fri 07:17:57 PM 37.3030 -113.1440 59° Northeast 481 554 37,000  Level FlightAware ADS-B
Fri 07:18:42 PM 37.3750 -112.9850 60° Northeast 478 550 37,000  Level FlightAware ADS-B
Fri 07:19:42 PM 37.4400 -112.8470 59° Northeast 477 549 37,000  Level FlightAware ADS-B
Fri 07:20:22 PM 37.4790 -112.7660 59° Northeast 477 549 37,000  Level FlightAware ADS-B
Fri 07:21:02 PM 37.5180 -112.6850 59° Northeast 477 549 37,000  Level FlightAware ADS-B
Fri 07:21:42 PM 37.5560 -112.6040 59° Northeast 477 549 37,000  Level FlightAware ADS-B
Fri 07:22:22 PM 37.5950 -112.5220 59° Northeast 477 549 37,000  Level FlightAware ADS-B
Fri 07:23:12 PM 37.6430 -112.4210 59° Northeast 477 549 37,000  Level FlightAware ADS-B
Fri 07:23:52 PM 37.6820 -112.3400 59° Northeast 477 549 37,000  Level FlightAware ADS-B
Fri 07:24:32 PM 37.7200 -112.2580 60° Northeast 477 549 37,000  Level FlightAware ADS-B
Fri 07:25:12 PM 37.7590 -112.1770 59° Northeast 477 549 37,000  Level FlightAware ADS-B
Fri 07:25:52 PM 37.7980 -112.0960 59° Northeast 477 549 37,000  Level FlightAware ADS-B
Fri 07:26:42 PM 37.8460 -111.9940 59° Northeast 477 549 37,000  Level FlightAware ADS-B
Fri 07:27:22 PM 37.8850 -111.9120 59° Northeast 477 549 37,000  Level FlightAware ADS-B
Fri 07:28:02 PM 37.9230 -111.8310 59° Northeast 477 549 37,000  Level FlightAware ADS-B
Fri 07:28:42 PM 37.9620 -111.7490 59° Northeast 477 549 37,000  Level FlightAware ADS-B
Fri 07:29:02 PM 38.1108 -111.5694 59° Northeast 456 525 37,000  Level Denver Center
Fri 07:30:04 PM 38.1850 -111.4392 54° Northeast 457 526 37,000  Level Denver Center
Fri 07:31:06 PM 38.2581 -111.3081 55° Northeast 456 525 37,000  Level Denver Center
Fri 07:32:15 PM 38.3489 -111.1503 54° Northeast 462 532 37,000  Level Salt Lake Center
Fri 07:33:17 PM 38.4233 -111.0183 54° Northeast 460 529 37,000  Level Salt Lake Center
Fri 07:34:20 PM 38.5042 -110.8728 55° Northeast 461 531 37,000  Level Salt Lake Center
Fri 07:35:21 PM 38.5764 -110.7436 54° Northeast 466 536 37,000  Level Salt Lake Center
Fri 07:36:16 PM 38.6436 -110.6106 57° Northeast 465 535 37,000  Level Denver Center
Fri 07:37:18 PM 38.7294 -110.4611 54° Northeast 468 539 37,000  Level Denver Center
Fri 07:38:20 PM 38.7992 -110.3319 55° Northeast 461 531 37,000  Level Denver Center
Fri 07:43:37 PM 39.1870 -109.6170 55° Northeast 456 525 37,000  Level FlightAware ADS-B
Fri 07:44:22 PM 39.2380 -109.5210 56° Northeast 457 526 37,000  Level FlightAware ADS-B
Fri 07:45:12 PM 39.3020 -109.4000 56° Northeast 458 527 37,000  Level FlightAware ADS-B
Fri 07:45:57 PM 39.3560 -109.2980 56° Northeast 457 526 37,000  Level FlightAware ADS-B
Fri 07:46:37 PM 39.4050 -109.2060 55° Northeast 456 525 37,000  Level FlightAware ADS-B
Fri 07:47:22 PM 39.4540 -109.1120 56° Northeast 453 521 37,000  Level FlightAware ADS-B
Fri 07:48:02 PM 39.5030 -109.0190 56° Northeast 453 521 37,000  Level FlightAware ADS-B
Fri 07:48:42 PM 39.5520 -108.9260 56° Northeast 453 521 37,000  Level FlightAware ADS-B
Fri 07:49:17 PM 39.5890 -108.8560 56° Northeast 455 524 37,000  Level FlightAware ADS-B
Fri 07:50:02 PM 39.6360 -108.7680 55° Northeast 455 524 37,000  Level FlightAware ADS-B
Fri 07:50:47 PM 39.7000 -108.6420 57° Northeast 462 532 37,000  Level FlightAware ADS-B
Fri 07:51:32 PM 39.7540 -108.5380 56° Northeast 462 532 37,000  Level FlightAware ADS-B
Fri 07:52:12 PM 39.7990 -108.4500 56° Northeast 462 532 37,000  Level FlightAware ADS-B
Fri 07:52:57 PM 39.8360 -108.3790 56° Northeast 460 529 37,000  Level FlightAware ADS-B
Fri 07:53:37 PM 39.8920 -108.2700 56° Northeast 460 529 37,000  Level FlightAware ADS-B
Fri 07:54:32 PM 39.9520 -108.1520 56° Northeast 460 529 37,000  Level FlightAware ADS-B
Fri 07:55:12 PM 39.9930 -108.0740 56° Northeast 460 529 37,000  Level FlightAware ADS-B
Fri 07:55:52 PM 40.0470 -107.9640 57° Northeast 37,000  Level FlightAware ADS-B
Fri 07:56:42 PM 40.1150 -107.8170 59° Northeast 473 544 37,000  Level FlightAware ADS-B
Fri 07:57:22 PM 40.1590 -107.7170 60° Northeast 478 550 37,000  Level FlightAware ADS-B
Fri 07:58:02 PM 40.2030 -107.6180 60° Northeast 477 549 37,000  Level FlightAware ADS-B
Fri 07:58:47 PM 40.2510 -107.5060 61° Northeast 479 551 37,000  Level FlightAware ADS-B
Fri 07:59:27 PM 40.2960 -107.4040 60° Northeast 476 548 37,000  Level FlightAware ADS-B
Fri 08:00:12 PM 40.3440 -107.2920 61° Northeast 474 545 37,000  Level FlightAware ADS-B
Fri 08:00:52 PM 40.3860 -107.1950 60° Northeast 470 541 37,000  Level FlightAware ADS-B
Fri 08:01:47 PM 40.4410 -107.0690 60° Northeast 467 537 37,000  Level FlightAware ADS-B
Fri 08:02:42 PM 40.4900 -106.9560 60° Northeast 467 537 37,000  Level FlightAware ADS-B
Fri 08:03:22 PM 40.5440 -106.8270 61° Northeast 462 532 37,000  Level FlightAware ADS-B
Fri 08:04:07 PM 40.5900 -106.7190 61° Northeast 461 531 37,000  Level FlightAware ADS-B
Fri 08:04:52 PM 40.6390 -106.6050 60° Northeast 461 531 37,000  Level FlightAware ADS-B
Fri 08:05:42 PM 40.6890 -106.4860 61° Northeast 463 533 37,000  Level FlightAware ADS-B
Fri 08:06:27 PM 40.7370 -106.3700 61° Northeast 462 532 37,000  Level FlightAware ADS-B
Fri 08:07:12 PM 40.7840 -106.2600 61° Northeast 462 532 37,000  Level FlightAware ADS-B
Fri 08:07:52 PM 40.8250 -106.1620 61° Northeast 462 532 37,000  Level FlightAware ADS-B
Fri 08:08:37 PM 40.8720 -106.0490 61° Northeast 460 529 37,000  Level FlightAware ADS-B
Fri 08:09:17 PM 40.9120 -105.9540 61° Northeast 458 527 37,000  Level FlightAware ADS-B
Fri 08:09:57 PM 40.9530 -105.8530 62° Northeast 464 534 37,000  Level FlightAware ADS-B
Fri 08:10:42 PM 40.9990 -105.7420 61° Northeast 466 536 37,000  Level FlightAware ADS-B
Fri 08:11:22 PM 41.0400 -105.6400 62° Northeast 467 537 37,000  Level FlightAware ADS-B
Fri 08:12:07 PM 41.0880 -105.5240 61° Northeast 466 536 37,000  Level FlightAware ADS-B
Fri 08:12:47 PM 41.1270 -105.4280 62° Northeast 465 535 37,000  Level FlightAware ADS-B
Fri 08:13:42 PM 41.1840 -105.2890 61° Northeast 462 532 37,000  Level FlightAware ADS-B
Fri 08:14:30 PM 41.2343 -105.1640 62° Northeast 462 532 37,000  Level FlightAware ADS-B
Fri 08:15:01 PM 41.2656 -105.0860 62° Northeast 461 531 37,000  Level FlightAware ADS-B
Fri 08:15:33 PM 41.2975 -105.0070 62° Northeast 459 528 37,000  Level FlightAware ADS-B
Fri 08:16:04 PM 41.3276 -104.9320 62° Northeast 459 528 37,000  Level FlightAware ADS-B
Fri 08:16:34 PM 41.3576 -104.8570 62° Northeast 457 526 37,000  Level FlightAware ADS-B
Fri 08:17:08 PM 41.3917 -104.7710 62° Northeast 455 524 37,000  Level FlightAware ADS-B
Fri 08:17:39 PM 41.4215 -104.6970 62° Northeast 453 521 37,000  Level FlightAware ADS-B
Fri 08:18:09 PM 41.4510 -104.6230 62° Northeast 451 519 37,000  Level FlightAware ADS-B
Fri 08:18:40 PM 41.4806 -104.5480 62° Northeast 450 518 37,000  Level FlightAware ADS-B
Fri 08:19:10 PM 41.5101 -104.4730 62° Northeast 451 519 37,000  Level FlightAware ADS-B
Fri 08:19:40 PM 41.5393 -104.3990 62° Northeast 451 519 37,000  Level FlightAware ADS-B
Fri 08:20:12 PM 41.5697 -104.3220 62° Northeast 450 518 37,000  Level FlightAware ADS-B
Fri 08:20:43 PM 41.6000 -104.2450 62° Northeast 455 524 37,000  Level FlightAware ADS-B
Fri 08:21:13 PM 41.6297 -104.1690 62° Northeast 458 527 37,000  Level FlightAware ADS-B
Fri 08:21:44 PM 41.6592 -104.0930 63° Northeast 458 527 37,000  Level FlightAware ADS-B
Fri 08:22:15 PM 41.6906 -104.0120 63° Northeast 463 533 37,000  Level FlightAware ADS-B
Fri 08:22:45 PM 41.7200 -103.9360 63° Northeast 463 533 37,000  Level FlightAware ADS-B
Fri 08:23:16 PM 41.7503 -103.8570 63° Northeast 463 533 37,000  Level FlightAware ADS-B
Fri 08:23:47 PM 41.7804 -103.7790 63° Northeast 463 533 37,000  Level FlightAware ADS-B
Fri 08:24:17 PM 41.8095 -103.7030 63° Northeast 460 529 37,000  Level FlightAware ADS-B
Fri 08:24:48 PM 41.8391 -103.6260 63° Northeast 458 527 37,000  Level FlightAware ADS-B
Fri 08:25:22 PM 41.8721 -103.5390 63° Northeast 457 526 37,000  Level FlightAware ADS-B
Fri 08:25:37 PM 41.8846 -103.5010 66° East 458 527 37,000  Level FlightAware ADS-B
Fri 08:25:58 PM 41.8986 -103.4430 72° East 462 532 37,000  Level FlightAware ADS-B
Fri 08:26:08 PM 41.9035 -103.4140 77° East 464 534 37,000  Level FlightAware ADS-B
Fri 08:26:39 PM 41.9156 -103.3290 79° East 463 533 37,000  Level FlightAware ADS-B
Fri 08:27:09 PM 41.9275 -103.2450 79° East 462 532 37,000  Level FlightAware ADS-B
Fri 08:27:39 PM 41.9396 -103.1580 79° East 462 532 37,000  Level FlightAware ADS-B
Fri 08:28:11 PM 41.9520 -103.0690 79° East 461 531 37,000  Level FlightAware ADS-B
Fri 08:28:44 PM 41.9649 -102.9760 79° East 459 528 37,000  Level FlightAware ADS-B
Fri 08:29:15 PM 41.9767 -102.8910 79° East 458 527 37,000  Level FlightAware ADS-B
Fri 08:29:45 PM 41.9883 -102.8070 79° East 459 528 37,000  Level FlightAware ADS-B
Fri 08:30:16 PM 42.0002 -102.7190 80° East 460 529 37,000  Level FlightAware ADS-B
Fri 08:30:47 PM 42.0117 -102.6330 80° East 458 527 37,000  Level FlightAware ADS-B
Fri 08:31:25 PM 42.0258 -102.5270 80° East 456 525 37,000  Level FlightAware ADS-B
Fri 08:31:55 PM 42.0370 -102.4430 80° East 457 526 37,000  Level FlightAware ADS-B
Fri 08:32:26 PM 42.0482 -102.3580 80° East 460 529 37,000  Level FlightAware ADS-B
Fri 08:32:56 PM 42.0593 -102.2720 80° East 459 528 37,000  Level FlightAware ADS-B
Fri 08:33:43 PM 42.0764 -102.1410 80° East 459 528 37,000  Level FlightAware ADS-B
Fri 08:34:54 PM 42.1024 -101.9410 80° East 457 526 37,000  Level FlightAware ADS-B
Fri 08:35:22 PM 42.1103 -101.8914 80° East 461 531 37,000  Level Denver Center
Fri 08:36:24 PM 42.1322 -101.7058 81° East 454 522 37,000  Level Denver Center
Fri 08:37:38 PM 42.1525 -101.5433 80° East 457 526 37,000  Level Denver Center
Fri 08:38:40 PM 42.1797 -101.3222 80° East 465 535 37,000  Level Denver Center
Fri 08:39:42 PM 42.1992 -101.1583 81° East 464 534 37,000  Level Denver Center
Fri 08:40:44 PM 42.2231 -100.9631 81° East 469 540 37,000  Level Denver Center
Fri 08:41:45 PM 42.2425 -100.7994 81° East 465 535 37,000  Level Denver Center
Fri 08:42:47 PM 42.2644 -100.6058 81° East 466 536 37,000  Level Denver Center
Fri 08:43:49 PM 42.2839 -100.4406 81° East 466 536 37,000  Level Denver Center
Fri 08:44:51 PM 42.3061 -100.2469 81° East 467 537 37,000  Level Denver Center
Fri 08:45:57 PM 42.3269 -100.0608 81° East 467 537 37,000  Level Minneapolis Center
Fri 08:46:54 PM 42.3433 -99.9125 81° East 469 540 37,000  Level Denver Center
Fri 08:47:56 PM 42.3639 -99.7147 82° East 474 545 37,000  Level Denver Center
Fri 08:48:58 PM 42.3839 -99.5294 82° East 475 547 37,000  Level Denver Center
Fri 08:49:59 PM 42.4031 -99.3517 82° East 475 547 37,000  Level Denver Center
Fri 08:51:07 PM 42.4222 -99.1739 82° East 477 549 37,000  Level Minneapolis Center
Fri 08:52:09 PM 42.4428 -98.9619 82° East 474 545 37,000  Level Minneapolis Center
Fri 08:53:11 PM 42.4619 -98.7839 82° East 476 548 37,000  Level Minneapolis Center
Fri 08:54:13 PM 42.4753 -98.6047 84° East 477 549 37,000  Level Minneapolis Center
Fri 08:55:15 PM 42.4839 -98.4247 86° East 478 550 37,000  Level Minneapolis Center
Fri 08:56:17 PM 42.4922 -98.2439 86° East 479 551 37,000  Level Minneapolis Center
Fri 08:57:19 PM 42.5011 -98.0633 86° East 479 551 37,000  Level Minneapolis Center
Fri 08:58:21 PM 42.5092 -97.8842 86° East 476 548 37,000  Level Minneapolis Center
Fri 08:59:23 PM 42.5178 -97.6744 87° East 478 550 37,000  Level Minneapolis Center
Fri 09:00:25 PM 42.5250 -97.4947 87° East 477 549 37,000  Level Minneapolis Center
Fri 09:01:27 PM 42.5325 -97.3100 87° East 486 559 37,000  Level Minneapolis Center
Fri 09:02:29 PM 42.5397 -97.1261 87° East 487 560 37,000  Level Minneapolis Center
Fri 09:03:31 PM 42.5472 -96.9403 87° East 490 564 37,000  Level Minneapolis Center
Fri 09:04:33 PM 42.5536 -96.7556 87° East 491 565 37,000  Level Minneapolis Center
Fri 09:05:35 PM 42.5592 -96.5697 88° East 490 564 37,000  Level Minneapolis Center
Fri 09:06:37 PM 42.5664 -96.3497 87° East 487 560 37,000  Level Minneapolis Center
Fri 09:07:39 PM 42.5717 -96.1681 88° East 483 556 37,000  Level Minneapolis Center
Fri 09:08:41 PM 42.5778 -95.9869 87° East 481 554 37,000  Level Minneapolis Center
Fri 09:09:43 PM 42.5819 -95.8053 88° East 480 552 37,000  Level Minneapolis Center
Fri 09:10:45 PM 42.5861 -95.6219 88° East 484 557 37,000  Level Minneapolis Center
Fri 09:11:47 PM 42.5903 -95.4389 88° East 485 558 37,000  Level Minneapolis Center
Fri 09:12:49 PM 42.5936 -95.2544 89° East 486 559 37,000  Level Minneapolis Center
Fri 09:13:51 PM 42.5989 -95.0358 88° East 485 558 37,000  Level Minneapolis Center
Fri 09:14:53 PM 42.6019 -94.8522 89° East 487 560 37,000  Level Minneapolis Center
Fri 09:15:55 PM 42.6058 -94.6678 88° East 488 562 37,000  Level Minneapolis Center
Fri 09:21:57 PM 42.5770 -93.5520 88° East 481 554 37,000  Level FlightAware ADS-B
Fri 09:22:37 PM 42.5720 -93.4360 93° East 480 552 37,000  Level FlightAware ADS-B
Fri 09:23:37 PM 42.5740 -93.2550 89° East 479 551 37,000  Level FlightAware ADS-B
Fri 09:24:17 PM 42.5760 -93.1390 89° East 480 552 37,000  Level FlightAware ADS-B
Fri 09:25:02 PM 42.5780 -93.0070 89° East 480 552 37,000  Level FlightAware ADS-B
Fri 09:25:42 PM 42.5790 -92.8720 89° East 481 554 37,000  Level FlightAware ADS-B
Fri 09:26:27 PM 42.5800 -92.7440 89° East 481 554 37,000  Level FlightAware ADS-B
Fri 09:27:07 PM 42.5810 -92.6240 89° East 482 555 37,000  Level FlightAware ADS-B
Fri 09:27:47 PM 42.5830 -92.5040 89° East 483 556 37,000  Level FlightAware ADS-B
Fri 09:28:32 PM 42.5840 -92.3700 89° East 485 558 37,000  Level FlightAware ADS-B
Fri 09:29:12 PM 42.5840 -92.2420 90° East 486 559 37,000  Level FlightAware ADS-B
Fri 09:29:52 PM 42.5850 -92.1170 89° East 487 560 37,000 -282 Level FlightAware ADS-B
Fri 09:30:37 PM 42.5850 -91.9860 90° East 487 560 36,600 -706 Descending FlightAware ADS-B
Fri 09:31:17 PM 42.5850 -91.8670 90° East 485 558 36,000 -988 Descending FlightAware ADS-B
Fri 09:32:02 PM 42.5850 -91.7230 90° East 488 562 35,200 -1,059 Descending FlightAware ADS-B
Fri 09:32:42 PM 42.5860 -91.6030 89° East 488 562 34,500 -988 Descending FlightAware ADS-B
Fri 09:33:27 PM 42.5860 -91.4680 90° East 488 562 33,800 -918 Descending FlightAware ADS-B
Fri 09:34:07 PM 42.5850 -91.3430 91° East 490 564 33,200 -900 Descending FlightAware ADS-B
Fri 09:34:47 PM 42.5850 -91.2210 90° East 489 563 32,600 -988 Descending FlightAware ADS-B
Fri 09:35:32 PM 42.5840 -91.0830 91° East 492 566 31,800 -988 Descending FlightAware ADS-B
Fri 09:36:12 PM 42.5840 -90.9610 90° East 489 563 31,200 -600 Descending FlightAware ADS-B
Fri 09:36:52 PM 42.5830 -90.8410 91° East 488 562 31,000 -141 Descending FlightAware ADS-B
Fri 09:37:37 PM 42.5820 -90.7010 91° East 488 562 31,000 -494 Level FlightAware ADS-B
Fri 09:38:17 PM 42.5810 -90.5770 91° East 484 557 30,300 -988 Descending FlightAware ADS-B
Fri 09:39:02 PM 42.5800 -90.4460 91° East 480 552 29,600 -918 Descending FlightAware ADS-B
Fri 09:39:42 PM 42.5770 -90.3240 92° East 472 543 29,000 -988 Descending FlightAware ADS-B
Fri 09:40:27 PM 42.5630 -90.1910 98° East 463 533 28,200 -1,059 Descending FlightAware ADS-B
Fri 09:41:07 PM 42.5510 -90.0790 98° East 454 522 27,500 -975 Descending FlightAware ADS-B
Fri 09:41:47 PM 42.5390 -89.9690 98° East 453 521 26,900 -988 Descending FlightAware ADS-B
Fri 09:42:32 PM 42.5260 -89.8380 98° East 450 518 26,100 -988 Descending FlightAware ADS-B
Fri 09:43:12 PM 42.5140 -89.7300 99° East 444 511 25,500 -975 Descending FlightAware ADS-B
Fri 09:43:52 PM 42.5020 -89.6170 98° East 445 512 24,800 -988 Descending FlightAware ADS-B
Fri 09:44:37 PM 42.4890 -89.4960 98° East 446 513 24,100 -1,200 Descending FlightAware ADS-B
Fri 09:45:17 PM 42.4760 -89.3830 99° East 443 510 23,100 -1,976 Descending FlightAware ADS-B
Fri 09:46:02 PM 42.4630 -89.2600 98° East 433 498 21,300 -2,400 Descending FlightAware ADS-B
Fri 09:46:42 PM 42.4510 -89.1580 99° East 423 487 19,700 -2,329 Descending FlightAware ADS-B
Fri 09:47:27 PM 42.4380 -89.0400 98° East 413 475 18,000 -2,259 Descending FlightAware ADS-B
Fri 09:48:07 PM 42.4260 -88.9390 99° East 403 464 16,500 -2,325 Descending FlightAware ADS-B
Fri 09:48:47 PM 42.4150 -88.8390 98° East 398 458 14,900 -2,188 Descending FlightAware ADS-B
Fri 09:49:32 PM 42.4020 -88.7300 99° East 387 445 13,400 -1,976 Descending FlightAware ADS-B
Fri 09:50:12 PM 42.3910 -88.6350 99° East 379 436 12,100 -2,025 Descending FlightAware ADS-B
Fri 09:50:52 PM 42.3800 -88.5420 99° East 372 428 10,700 -1,412 Descending FlightAware ADS-B
Fri 09:51:37 PM 42.3590 -88.4470 107° East 362 417 10,100 -424 Descending FlightAware ADS-B
Fri 09:52:17 PM 42.3270 -88.3660 118° Southeast 363 418 10,100  Level FlightAware ADS-B
Fri 09:53:02 PM 42.2780 -88.2850 129° Southeast 364 419 10,100  Level FlightAware ADS-B
Fri 09:53:42 PM 42.2370 -88.2150 128° Southeast 363 418 10,100  Level FlightAware ADS-B
Fri 09:54:22 PM 42.1910 -88.1490 133° Southeast 362 417 10,100  Level FlightAware ADS-B
Fri 09:55:07 PM 42.1350 -88.0860 140° Southeast 337 388 10,100 -171 Level FlightAware ADS-B
Fri 09:55:32 PM 42.1080 -88.0540 139° Southeast 314 361 9,900 -764 Descending FlightAware ADS-B
Fri 09:56:02 PM 42.0740 -88.0160 140° Southeast 300 345 9,400 -1,200 Descending FlightAware ADS-B
Fri 09:56:32 PM 42.0420 -87.9790 139° Southeast 297 342 8,700 -1,309 Descending FlightAware ADS-B
Fri 09:56:57 PM 42.0170 -87.9520 141° Southeast 296 341 8,200 -1,309 Descending FlightAware ADS-B
Fri 09:57:27 PM 41.9860 -87.9160 139° Southeast 295 339 7,500 -1,200 Descending FlightAware ADS-B
Fri 09:57:52 PM 41.9600 -87.8870 140° Southeast 286 329 7,100 -436 Descending FlightAware ADS-B
Fri 09:58:22 PM 41.9300 -87.8540 141° Southeast 253 291 7,100  Level FlightAware ADS-B
Fri 09:58:52 PM 41.9060 -87.8260 139° Southeast 228 262 7,100  Level FlightAware ADS-B
Fri 09:59:17 PM 41.8890 -87.8000 131° Southeast 228 262 7,100  Level FlightAware ADS-B
Fri 09:59:32 PM 41.8850 -87.7800 105° East 226 260 7,100 -1,067 Level FlightAware ADS-B
Fri 10:00:02 PM 41.8840 -87.7360 92° East 230 265 6,300 -1,418 Descending FlightAware ADS-B
Fri 10:00:27 PM 41.8840 -87.7020 90° East 228 262 5,800 -1,200 Descending FlightAware ADS-B
Fri 10:00:42 PM 41.8840 -87.6790 90° East 227 261 5,500 -900 Descending FlightAware ADS-B
Fri 10:01:07 PM 41.8840 -87.6480 90° East 225 259 5,200 -436 Descending FlightAware ADS-B
Fri 10:01:37 PM 41.8840 -87.6070 90° East 219 252 5,100 -100 Descending FlightAware ADS-B
Fri 10:02:07 PM 41.8840 -87.5680 90° East 219 252 5,100  Level FlightAware ADS-B
Fri 10:02:32 PM 41.8840 -87.5360 90° East 212 244 5,100  Level FlightAware ADS-B
Fri 10:03:02 PM 41.8850 -87.4930 88° East 210 242 5,100  Level FlightAware ADS-B
Fri 10:03:32 PM 41.8840 -87.4510 92° East 212 244 5,100  Level FlightAware ADS-B
Fri 10:03:57 PM 41.8840 -87.4200 90° East 215 247 5,100  Level FlightAware ADS-B
Fri 10:04:42 PM 41.9010 -87.3740 64° Northeast 173 199 5,100  Level FlightAware ADS-B
Fri 10:05:22 PM 41.9280 -87.3810 349° North 150 173 5,100  Level FlightAware ADS-B
Fri 10:05:47 PM 41.9390 -87.3980 311° West 147 169 5,100  Level FlightAware ADS-B
Fri 10:06:17 PM 41.9510 -87.4180 309° West 145 167 5,100  Level FlightAware ADS-B
Fri 10:06:47 PM 41.9650 -87.4410 309° West 144 166 5,100  Level FlightAware ADS-B
Fri 10:07:12 PM 41.9690 -87.4610 285° West 145 167 5,100  Level FlightAware ADS-B
Fri 10:07:37 PM 41.9690 -87.4820 270° West 145 167 5,100  Level FlightAware ADS-B
Fri 10:08:12 PM 41.9690 -87.5150 270° West 145 167 5,100  Level FlightAware ADS-B
Fri 10:08:47 PM 41.9690 -87.5480 270° West 149 171 5,100  Level FlightAware ADS-B
Fri 10:09:17 PM 41.9690 -87.5740 270° West 150 173 5,100 -100 Level FlightAware ADS-B
Fri 10:09:47 PM 41.9690 -87.6020 270° West 151 174 5,000 -545 Descending FlightAware ADS-B
Fri 10:10:12 PM 41.9690 -87.6270 270° West 152 175 4,600 -873 Descending FlightAware ADS-B
Fri 10:10:42 PM 41.9690 -87.6540 270° West 148 170 4,200 -800 Descending FlightAware ADS-B
Fri 10:11:12 PM 41.9690 -87.6820 270° West 148 170 3,800 -873 Descending FlightAware ADS-B
Fri 10:11:37 PM 41.9690 -87.7060 270° West 147 169 3,400 -873 Descending FlightAware ADS-B
Fri 10:12:07 PM 41.9690 -87.7310 270° West 145 167 3,000 -738 Descending FlightAware ADS-B
Fri 10:12:42 PM 41.9690 -87.7620 270° West 138 159 2,600 -700 Descending FlightAware ADS-B
Fri 10:13:07 PM 41.9690 -87.7840 270° West 128 147 2,300 -720 Descending FlightAware ADS-B
Fri 10:13:32 PM 41.9690 -87.8030 270° West 125 144 2,000 -738 Descending FlightAware ADS-B
Fri 10:14:12 PM 41.9690 -87.8330 270° West 126 145 1,500 -686 Descending FlightAware ADS-B
Fri 10:14:42 PM 41.9690 -87.8550 270° West 131 151 1,200 -720 Descending FlightAware ADS-B
Fri 10:15:02 PM 41.9690 -87.8740 270° West 131 151 900 -500 Descending FlightAware ADS-B
Fri 10:15:42 PM 41.9690 -87.9050 270° West 134 154 700 -300 Descending FlightAware ADS-B

Login

Don't have an account? Register now (free) for customized features, flight alerts, and more!